Time;durP1;ratioP1;P1;durP2;ratioP2;P2;SDS_P1;SDS_P2;PMS_P1;PMS_P2;Temp;Humidity;BMP_temperature;BMP_pressure;BME280_temperature;BME280_humidity;BME280_pressure;Samples;Min_cycle;Max_cycle;Signal;HPM_P1;HPM_P2
2022/03/17 00:02:16;;;;;;;31.35;15.00;;;;;;;4.57;100.00;95582.38;5022919;28;20503;-49
2022/03/17 00:04:44;;;;;;;25.33;11.40;;;;;;;4.58;100.00;95586.59;5020749;28;20050;-47
2022/03/17 00:07:11;;;;;;;32.80;12.95;;;;;;;4.57;100.00;95584.97;5023143;28;20041;-51
2022/03/17 00:09:37;;;;;;;27.85;13.52;;;;;;;4.55;100.00;95581.75;5022241;28;20111;-47
2022/03/17 00:12:05;;;;;;;26.33;11.77;;;;;;;4.53;100.00;95594.03;5022007;28;20482;-53
2022/03/17 00:14:31;;;;;;;27.90;13.48;;;;;;;4.49;100.00;95592.78;5022522;28;20049;-49
2022/03/17 00:16:58;;;;;;;24.67;11.48;;;;;;;4.47;100.00;95597.34;5026607;28;20044;-50
2022/03/17 00:19:25;;;;;;;23.60;11.07;;;;;;;4.43;100.00;95593.47;5021788;28;20077;-48
2022/03/17 00:21:52;;;;;;;18.80;8.23;;;;;;;4.43;100.00;95601.22;5022638;28;20048;-51
2022/03/17 00:24:19;;;;;;;23.85;10.30;;;;;;;4.49;100.00;95597.94;5022441;28;20499;-50
2022/03/17 00:26:45;;;;;;;22.90;10.32;;;;;;;4.54;100.00;95590.50;5022661;28;20056;-52
2022/03/17 00:29:12;;;;;;;21.58;10.70;;;;;;;4.58;100.00;95602.06;5021331;28;20057;-52
2022/03/17 00:31:39;;;;;;;10.05;4.95;;;;;;;4.52;100.00;95592.44;5022312;28;20056;-51
2022/03/17 00:34:07;;;;;;;5.13;3.53;;;;;;;4.48;100.00;95601.50;5021019;28;20073;-48
2022/03/17 00:36:35;;;;;;;3.78;2.17;;;;;;;4.42;100.00;95597.03;5025075;28;20083;-49
2022/03/17 00:39:04;;;;;;;6.07;2.63;;;;;;;4.35;100.00;95602.09;5030028;28;20047;-51
2022/03/17 00:41:32;;;;;;;3.97;2.35;;;;;;;4.30;100.00;95600.00;5027874;28;20103;-49
2022/03/17 00:43:59;;;;;;;4.15;2.50;;;;;;;4.32;100.00;95602.41;5022279;28;20631;-48
2022/03/17 00:46:27;;;;;;;3.60;2.45;;;;;;;4.32;100.00;95613.56;5027776;28;21782;-48
2022/03/17 00:48:53;;;;;;;4.53;2.72;;;;;;;4.34;100.00;95601.28;5024093;28;20430;-48
2022/03/17 00:51:20;;;;;;;8.23;2.50;;;;;;;4.36;100.00;95604.50;5027628;28;21765;-49
2022/03/17 00:53:47;;;;;;;3.03;2.20;;;;;;;4.36;100.00;95604.50;5022767;28;20049;-50
2022/03/17 00:56:14;;;;;;;6.00;2.90;;;;;;;4.41;100.00;95609.13;5022259;28;20042;-49
2022/03/17 00:58:45;;;;;;;4.68;2.40;;;;;;;4.38;100.00;95607.69;5021700;28;20052;-50
2022/03/17 01:01:14;;;;;;;2.92;1.45;;;;;;;4.28;100.00;95617.44;5021355;28;20631;-49
2022/03/17 01:03:42;;;;;;;3.28;1.92;;;;;;;4.18;100.00;95627.19;5021268;28;20045;-49
2022/03/17 01:06:08;;;;;;;2.53;1.80;;;;;;;4.08;100.00;95626.59;5022009;28;20041;-49
2022/03/17 01:08:36;;;;;;;2.95;1.75;;;;;;;4.01;100.00;95618.75;5022400;28;20068;-48
2022/03/17 01:11:05;;;;;;;3.20;2.33;;;;;;;3.96;100.00;95624.41;5029428;28;20475;-48
2022/03/17 01:13:32;;;;;;;2.50;1.80;;;;;;;3.87;100.00;95615.13;5027157;28;20099;-48
2022/03/17 01:15:59;;;;;;;3.25;2.30;;;;;;;3.82;100.00;95622.56;5021330;28;20049;-46
2022/03/17 01:18:26;;;;;;;2.72;1.63;;;;;;;3.81;100.00;95631.25;5021639;28;20038;-47
2022/03/17 01:20:53;;;;;;;3.08;1.90;;;;;;;3.79;100.00;95628.84;5026866;28;20426;-49
2022/03/17 01:23:19;;;;;;;3.10;2.00;;;;;;;3.79;100.00;95617.75;5023093;28;20041;-51
2022/03/17 01:25:46;;;;;;;4.82;1.88;;;;;;;3.78;100.00;95621.28;5021517;28;20564;-53
2022/03/17 01:28:13;;;;;;;4.50;2.97;;;;;;;3.79;100.00;95617.75;5021974;28;20038;-48
2022/03/17 01:30:40;;;;;;;3.40;2.45;;;;;;;3.85;100.00;95621.41;5020550;28;20053;-47
2022/03/17 01:33:06;;;;;;;5.43;2.95;;;;;;;3.79;100.00;95613.38;5021165;28;20079;-49
2022/03/17 01:35:33;;;;;;;4.90;2.30;;;;;;;3.88;100.00;95621.88;5022390;28;20037;-48
2022/03/17 01:38:00;;;;;;;4.50;2.30;;;;;;;3.97;100.00;95625.22;5022463;28;20041;-49
2022/03/17 01:40:27;;;;;;;4.80;3.15;;;;;;;3.95;100.00;95617.66;5021781;28;20124;-48
2022/03/17 01:42:54;;;;;;;5.38;2.78;;;;;;;4.06;100.00;95618.25;5021634;28;20049;-50
2022/03/17 01:45:21;;;;;;;4.90;2.42;;;;;;;4.13;100.00;95624.31;5025403;28;20056;-47
2022/03/17 01:47:48;;;;;;;7.20;2.80;;;;;;;4.07;100.00;95618.06;5025527;28;20116;-50
2022/03/17 01:50:17;;;;;;;4.78;2.97;;;;;;;4.08;100.00;95631.75;5022245;28;20056;-50
2022/03/17 01:52:45;;;;;;;5.43;3.55;;;;;;;4.16;100.00;95629.13;5020970;28;20104;-51
2022/03/17 01:55:13;;;;;;;6.15;3.67;;;;;;;4.10;100.00;95627.22;5030289;28;20064;-48
2022/03/17 01:57:41;;;;;;;7.57;3.70;;;;;;;4.19;100.00;95644.25;5025454;28;20464;-49
2022/03/17 02:00:13;;;;;;;7.85;3.90;;;;;;;4.21;100.00;95647.47;5025698;28;20124;-50
2022/03/17 02:02:45;;;;;;;7.95;3.88;;;;;;;4.18;100.00;95637.50;5024763;28;20045;-53
2022/03/17 02:05:12;;;;;;;9.15;4.55;;;;;;;4.18;100.00;95632.34;5024642;28;20049;-49
2022/03/17 02:07:41;;;;;;;10.63;4.10;;;;;;;4.29;100.00;95650.00;5025209;28;20106;-48
2022/03/17 02:10:08;;;;;;;8.30;4.28;;;;;;;4.30;100.00;95649.00;5025062;28;20490;-48
2022/03/17 02:15:20;;;;;;;7.25;3.65;;;;;;;4.32;100.00;95659.97;5024559;28;20053;-51
2022/03/17 02:17:48;;;;;;;8.93;5.45;;;;;;;4.36;100.00;95656.06;5025180;28;20061;-51
2022/03/17 02:20:15;;;;;;;11.90;6.10;;;;;;;4.31;100.00;95653.19;5025561;28;20048;-49
2022/03/17 02:22:46;;;;;;;6.40;3.97;;;;;;;4.29;100.00;95659.53;5025374;28;20530;-54
2022/03/17 02:28:02;;;;;;;7.25;4.03;;;;;;;4.27;100.00;95656.28;5023845;28;20486;-52
2022/03/17 02:30:31;;;;;;;11.77;5.97;;;;;;;4.24;100.00;95652.28;5024556;28;20060;-50
2022/03/17 02:33:00;;;;;;;8.82;5.18;;;;;;;4.27;100.00;95649.38;5024437;28;20033;-53
2022/03/17 02:35:28;;;;;;;11.95;6.70;;;;;;;4.25;100.00;95646.16;5025542;28;20139;-50
2022/03/17 02:37:55;;;;;;;14.23;5.93;;;;;;;4.24;100.00;95649.72;5024900;28;20395;-51
2022/03/17 02:40:25;;;;;;;11.48;5.93;;;;;;;4.09;100.00;95662.53;5023594;28;20049;-50
2022/03/17 02:42:53;;;;;;;12.80;5.75;;;;;;;4.13;100.00;95670.72;5024014;28;20041;-47
2022/03/17 02:45:21;;;;;;;16.67;6.45;;;;;;;4.12;100.00;95687.94;5024921;28;20433;-49
2022/03/17 02:47:48;;;;;;;14.50;6.43;;;;;;;4.11;100.00;95677.84;5029312;28;20480;-48
2022/03/17 02:50:16;;;;;;;9.95;5.47;;;;;;;3.87;100.00;95682.13;5024486;28;20046;-49
2022/03/17 02:52:43;;;;;;;5.30;3.17;;;;;;;3.67;100.00;95675.75;5024540;28;20050;-49
2022/03/17 02:55:12;;;;;;;10.43;4.75;;;;;;;3.51;100.00;95682.59;5024612;28;20042;-46
2022/03/17 02:57:40;;;;;;;9.55;5.55;;;;;;;3.41;100.00;95679.41;5025007;28;20042;-46
2022/03/17 03:00:09;;;;;;;8.65;3.50;;;;;;;3.37;100.00;95685.84;5025569;28;20457;-46
2022/03/17 03:02:37;;;;;;;10.48;5.22;;;;;;;3.31;100.00;95691.63;5023959;28;20041;-47
2022/03/17 03:05:05;;;;;;;8.95;4.35;;;;;;;3.33;100.00;95700.00;5027607;28;20071;-48
2022/03/17 03:07:33;;;;;;;13.25;6.38;;;;;;;3.35;100.00;95692.91;5031139;28;21689;-47
2022/03/17 03:10:00;;;;;;;10.50;5.80;;;;;;;3.39;100.00;95689.06;5022497;28;20127;-50
2022/03/17 03:12:26;;;;;;;10.15;6.72;;;;;;;3.41;100.00;95692.28;5027228;28;20041;-50
2022/03/17 03:14:53;;;;;;;11.57;5.90;;;;;;;3.53;100.00;95703.84;5023391;28;20147;-47
2022/03/17 03:17:23;;;;;;;13.27;6.53;;;;;;;3.59;100.00;95710.88;5024342;28;20092;-52
2022/03/17 03:19:51;;;;;;;17.05;7.50;;;;;;;3.63;100.00;95717.31;5024072;28;20884;-46
2022/03/17 03:22:18;;;;;;;13.90;7.50;;;;;;;3.68;100.00;95723.75;5023990;28;20072;-52
2022/03/17 03:24:45;;;;;;;13.57;7.07;;;;;;;3.69;100.00;95726.19;5025457;28;20080;-47
2022/03/17 03:27:13;;;;;;;18.02;6.82;;;;;;;3.62;100.00;95720.88;5024255;28;20050;-50
2022/03/17 03:29:40;;;;;;;11.25;6.45;;;;;;;3.65;100.00;95724.88;5034227;28;20049;-47
2022/03/17 03:32:07;;;;;;;12.45;7.47;;;;;;;3.57;100.00;95719.75;5022791;28;20041;-50
2022/03/17 03:34:34;;;;;;;13.27;6.82;;;;;;;3.58;100.00;95719.59;5024367;28;20052;-50
2022/03/17 03:39:46;;;;;;;12.98;8.38;;;;;;;3.57;100.00;95712.81;5024084;28;20103;-49
2022/03/17 03:42:13;;;;;;;12.02;6.00;;;;;;;3.50;100.00;95713.66;5024413;28;20056;-46
2022/03/17 03:44:40;;;;;;;17.33;8.05;;;;;;;3.30;100.00;95695.19;5022960;28;20160;-48
2022/03/17 03:47:07;;;;;;;15.45;7.90;;;;;;;3.36;100.00;95715.13;5027931;28;20056;-46
2022/03/17 03:49:38;;;;;;;14.85;7.47;;;;;;;3.29;100.00;95714.19;5023121;28;20157;-47
2022/03/17 03:52:12;;;;;;;13.57;6.47;;;;;;;3.15;100.00;95713.88;5024063;28;20068;-47
2022/03/17 03:54:39;;;;;;;18.97;8.83;;;;;;;3.06;100.00;95714.84;5022814;28;20041;-52
2022/03/17 03:57:07;;;;;;;24.10;7.85;;;;;;;2.79;100.00;95709.06;5023070;28;20076;-47
2022/03/17 03:59:34;;;;;;;15.57;7.90;;;;;;;2.85;100.00;95718.72;5022754;28;20056;-50
2022/03/17 04:02:05;;;;;;;17.45;7.80;;;;;;;2.86;100.00;95715.19;5023412;28;20537;-49
2022/03/17 04:04:34;;;;;;;13.15;6.63;;;;;;;2.84;100.00;95726.59;5024605;28;20045;-50
2022/03/17 04:07:04;;;;;;;14.20;6.30;;;;;;;2.86;100.00;95729.81;5023522;28;20052;-50
2022/03/17 04:09:34;;;;;;;15.38;7.40;;;;;;;2.84;100.00;95737.66;5022611;28;20042;-51
2022/03/17 04:12:03;;;;;;;14.82;5.50;;;;;;;2.83;100.00;95741.22;5022920;28;20073;-52
2022/03/17 04:14:31;;;;;;;14.75;7.38;;;;;;;2.80;100.00;95738.16;5023715;28;20056;-52
2022/03/17 04:16:59;;;;;;;13.43;6.47;;;;;;;2.85;100.00;95748.78;5022352;28;20057;-47
2022/03/17 04:19:27;;;;;;;10.88;6.57;;;;;;;2.83;100.00;95741.22;5023774;28;20453;-50
2022/03/17 04:21:54;;;;;;;11.93;6.90;;;;;;;2.83;100.00;95748.94;5024405;28;20483;-51
2022/03/17 04:24:22;;;;;;;13.25;5.95;;;;;;;2.72;100.00;95731.25;5023398;28;20497;-51
2022/03/17 04:26:50;;;;;;;14.93;6.10;;;;;;;2.78;100.00;95748.63;5021986;28;20060;-47
2022/03/17 04:29:17;;;;;;;13.80;7.13;;;;;;;2.78;100.00;95752.97;5022904;28;20037;-50
2022/03/17 04:31:44;;;;;;;18.33;7.22;;;;;;;2.75;100.00;95764.38;5022365;28;20556;-49
2022/03/17 04:34:12;;;;;;;11.75;6.47;;;;;;;2.72;100.00;95767.28;5021547;28;20116;-51
2022/03/17 04:36:39;;;;;;;12.43;6.53;;;;;;;2.70;100.00;95766.59;5023705;28;20120;-53
2022/03/17 04:39:10;;;;;;;16.95;6.97;;;;;;;2.74;100.00;95778.22;5021428;28;20045;-52
2022/03/17 04:41:38;;;;;;;12.30;6.22;;;;;;;2.77;100.00;95777.88;5023384;28;20133;-50
2022/03/17 04:44:05;;;;;;;16.40;7.78;;;;;;;2.80;100.00;95780.13;5022529;28;20049;-49
2022/03/17 04:46:32;;;;;;;13.65;6.70;;;;;;;2.80;100.00;95782.69;5031115;28;20114;-51
2022/03/17 04:48:59;;;;;;;16.65;7.25;;;;;;;2.81;100.00;95779.19;5024383;28;20033;-50
2022/03/17 04:51:26;;;;;;;12.98;5.45;;;;;;;2.76;100.00;95786.56;5022363;28;20041;-54
2022/03/17 04:53:52;;;;;;;12.98;6.05;;;;;;;2.85;100.00;95801.03;5026838;28;20392;-50
2022/03/17 04:56:20;;;;;;;10.30;5.95;;;;;;;2.83;100.00;95797.84;5021114;28;20044;-52
2022/03/17 04:58:46;;;;;;;9.48;5.43;;;;;;;2.80;100.00;95797.34;5021817;28;20045;-51
2022/03/17 05:01:14;;;;;;;10.30;5.70;;;;;;;2.77;100.00;95813.88;5023082;28;20072;-51
2022/03/17 05:03:42;;;;;;;10.60;5.65;;;;;;;2.70;100.00;95812.91;5024938;28;20461;-49
2022/03/17 05:06:14;;;;;;;8.25;4.47;;;;;;;2.66;100.00;95803.91;5021778;28;20510;-49
2022/03/17 05:08:42;;;;;;;9.20;4.70;;;;;;;2.57;100.00;95805.66;5024111;28;20597;-52
2022/03/17 05:11:10;;;;;;;8.40;3.80;;;;;;;2.60;100.00;95812.25;5021937;28;20037;-51
2022/03/17 05:13:39;;;;;;;7.88;4.53;;;;;;;2.43;100.00;95796.78;5021776;28;20537;-51
2022/03/17 05:16:07;;;;;;;8.77;3.65;;;;;;;2.53;100.00;95814.63;5021232;28;20065;-54
2022/03/17 05:18:35;;;;;;;9.40;4.60;;;;;;;2.56;100.00;95818.69;5026750;28;20445;-51
2022/03/17 05:21:03;;;;;;;9.20;3.67;;;;;;;2.53;100.00;95821.56;5020880;28;20041;-52
2022/03/17 05:23:31;;;;;;;11.00;4.53;;;;;;;2.54;100.00;95818.00;5021021;28;20053;-50
2022/03/17 05:25:58;;;;;;;7.78;4.45;;;;;;;2.52;100.00;95825.06;5021672;28;20042;-49
2022/03/17 05:28:25;;;;;;;7.32;3.95;;;;;;;2.47;100.00;95818.66;5021463;28;20411;-49
2022/03/17 05:30:52;;;;;;;7.78;4.03;;;;;;;2.60;100.00;95825.91;5020703;28;20083;-47
2022/03/17 05:33:19;;;;;;;9.80;4.10;;;;;;;2.59;100.00;95824.31;5020782;28;20087;-49
2022/03/17 05:35:46;;;;;;;9.70;4.95;;;;;;;2.66;100.00;95832.19;5021491;28;20425;-47
2022/03/17 05:38:13;;;;;;;13.20;7.53;;;;;;;2.71;100.00;95839.47;5023328;28;20045;-51
2022/03/17 05:40:40;;;;;;;24.88;14.00;;;;;;;2.80;100.00;95844.44;5022496;28;20052;-52
2022/03/17 05:43:08;;;;;;;18.80;10.45;;;;;;;2.91;100.00;95842.56;5021356;28;20045;-51
2022/03/17 05:45:36;;;;;;;12.15;5.68;;;;;;;2.96;100.00;95846.25;5021254;28;20505;-48
2022/03/17 05:48:05;;;;;;;11.13;6.43;;;;;;;3.02;100.00;95852.53;5021228;28;20065;-50
2022/03/17 05:50:38;;;;;;;11.27;6.65;;;;;;;3.09;100.00;95853.50;5020034;28;20041;-53
2022/03/17 05:53:08;;;;;;;15.43;7.63;;;;;;;3.17;100.00;95856.13;5018801;28;20050;-49
2022/03/17 05:55:36;;;;;;;12.20;7.28;;;;;;;3.25;100.00;95856.09;5020844;28;20060;-52
2022/03/17 05:58:04;;;;;;;18.20;10.02;;;;;;;3.34;100.00;95858.69;5021845;28;20037;-51
2022/03/17 06:00:32;;;;;;;32.42;13.80;;;;;;;3.38;100.00;95867.69;5021003;28;20507;-52
2022/03/17 06:02:59;;;;;;;30.42;13.25;;;;;;;3.43;100.00;95870.59;5023171;28;20399;-52
2022/03/17 06:05:27;;;;;;;24.05;11.32;;;;;;;3.41;100.00;95862.25;5020829;28;20052;-52
2022/03/17 06:07:59;;;;;;;9.05;4.63;;;;;;;3.30;100.00;95865.13;5021287;28;20573;-47
2022/03/17 06:10:32;;;;;;;5.45;3.35;;;;;;;3.16;100.00;95875.09;5020760;28;20041;-49
2022/03/17 06:13:02;;;;;;;6.97;3.65;;;;;;;3.10;100.00;95880.06;5020168;28;20104;-48
2022/03/17 06:15:30;;;;;;;8.35;4.45;;;;;;;3.04;100.00;95881.50;5021164;28;20080;-51
2022/03/17 06:17:58;;;;;;;7.65;3.60;;;;;;;3.04;100.00;95892.63;5021582;28;20041;-51
2022/03/17 06:20:27;;;;;;;6.88;3.60;;;;;;;3.09;100.00;95894.69;5020936;28;20046;-48
2022/03/17 06:22:57;;;;;;;6.82;2.60;;;;;;;2.97;100.00;95883.91;5021603;28;20142;-50
2022/03/17 06:25:25;;;;;;;7.15;3.55;;;;;;;3.03;100.00;95896.13;5021316;28;20534;-48
2022/03/17 06:27:53;;;;;;;16.60;5.75;;;;;;;2.96;100.00;95889.22;5021178;28;20053;-51
2022/03/17 06:30:25;;;;;;;13.23;6.07;;;;;;;3.05;100.00;95904.50;5019881;28;20056;-52
2022/03/17 06:32:54;;;;;;;8.23;3.80;;;;;;;3.11;100.00;95897.91;5019200;28;20050;-50
2022/03/17 06:35:24;;;;;;;7.57;3.72;;;;;;;3.09;100.00;95894.69;5020759;28;20045;-50
2022/03/17 06:37:53;;;;;;;3.95;2.05;;;;;;;3.15;100.00;95904.38;5021267;28;20707;-47
2022/03/17 06:40:22;;;;;;;9.05;3.30;;;;;;;3.19;100.00;95915.97;5021685;28;20053;-49
2022/03/17 06:42:49;;;;;;;13.73;4.55;;;;;;;3.23;100.00;95919.03;5025105;28;20119;-50
2022/03/17 06:45:17;;;;;;;26.40;12.30;;;;;;;3.25;100.00;95925.63;5025421;28;20049;-49
2022/03/17 06:47:44;;;;;;;59.88;27.38;;;;;;;3.17;100.00;95928.19;5031074;28;20044;-47
2022/03/17 06:50:13;;;;;;;57.22;27.38;;;;;;;3.21;100.00;95924.34;5031028;28;20057;-47
2022/03/17 06:52:40;;;;;;;13.40;7.38;;;;;;;3.16;100.00;95918.84;5031621;28;20037;-51
2022/03/17 06:55:08;;;;;;;9.07;4.60;;;;;;;3.22;100.00;95931.09;5024032;28;20048;-51
2022/03/17 06:57:34;;;;;;;6.25;3.80;;;;;;;3.28;100.00;95934.00;5026111;28;20069;-50
2022/03/17 07:00:04;;;;;;;11.57;5.80;;;;;;;3.27;100.00;95937.53;5025450;28;20056;-47
2022/03/17 07:02:32;;;;;;;7.18;4.20;;;;;;;3.29;100.00;95945.91;5024474;28;20041;-49
2022/03/17 07:04:59;;;;;;;7.65;3.45;;;;;;;3.33;100.00;95952.34;5030329;28;20099;-50
2022/03/17 07:07:27;;;;;;;6.00;3.47;;;;;;;3.29;100.00;95940.75;5028592;28;20053;-50
2022/03/17 07:09:54;;;;;;;5.72;3.40;;;;;;;3.14;100.00;95956.03;5027551;28;20046;-52
2022/03/17 07:12:21;;;;;;;10.63;5.45;;;;;;;3.13;100.00;95955.19;5027811;28;20040;-51
2022/03/17 07:14:48;;;;;;;4.30;2.75;;;;;;;2.81;100.00;95943.84;5023813;28;20045;-53
2022/03/17 07:17:22;;;;;;;8.75;4.88;;;;;;;2.90;100.00;95952.41;5029027;28;20052;-51
2022/03/17 07:22:27;;;;;;;5.80;3.63;;;;;;;3.05;100.00;95960.34;5030096;28;20046;-49
2022/03/17 07:24:54;;;;;;;10.93;4.97;;;;;;;3.09;100.00;95956.47;5024702;28;20419;-47
2022/03/17 07:27:21;;;;;;;9.25;5.47;;;;;;;3.24;100.00;95965.22;5024480;28;20470;-48
2022/03/17 07:29:49;;;;;;;9.38;5.18;;;;;;;3.37;100.00;95958.81;5026762;28;20080;-53
2022/03/17 07:32:18;;;;;;;10.88;6.35;;;;;;;3.38;100.00;95965.56;5023717;28;20054;-52
2022/03/17 07:34:46;;;;;;;7.75;4.07;;;;;;;3.40;100.00;95968.78;5024469;28;20128;-48
2022/03/17 07:37:13;;;;;;;6.22;3.38;;;;;;;3.54;100.00;95975.91;5028326;28;20041;-51
2022/03/17 07:39:42;;;;;;;13.82;5.03;;;;;;;3.42;100.00;95961.69;5026028;28;20030;-48
2022/03/17 07:42:10;;;;;;;10.88;7.30;;;;;;;3.37;100.00;95979.41;5023833;28;20041;-48
2022/03/17 07:45:06;;;;;;;12.60;7.97;;;;;;;3.47;100.00;95980.06;5027566;28;20041;-52
2022/03/17 07:47:53;;;;;;;12.73;6.05;;;;;;;3.67;100.00;95979.78;5011757;28;20730;-51
2022/03/17 07:50:20;;;;;;;8.52;4.60;;;;;;;3.72;100.00;95983.47;5022465;28;20092;-50
2022/03/17 07:52:47;;;;;;;10.35;5.80;;;;;;;3.64;100.00;95966.25;5023604;28;20503;-50
2022/03/17 07:55:14;;;;;;;10.52;5.53;;;;;;;3.78;100.00;95984.63;5027539;28;20124;-52
2022/03/17 07:57:41;;;;;;;13.48;6.25;;;;;;;3.64;100.00;95973.97;5031356;28;20052;-49
2022/03/17 08:00:11;;;;;;;9.48;5.55;;;;;;;3.55;100.00;95987.81;5028984;28;20061;-52
2022/03/17 08:02:41;;;;;;;14.82;6.25;;;;;;;3.57;100.00;95985.09;5030342;28;20125;-50
2022/03/17 08:05:13;;;;;;;8.50;5.22;;;;;;;3.51;100.00;95985.72;5030560;28;20507;-51
2022/03/17 08:07:40;;;;;;;13.30;6.22;;;;;;;3.39;100.00;95982.63;5031508;28;20045;-49
2022/03/17 08:10:09;;;;;;;5.72;3.55;;;;;;;3.17;100.00;95978.84;5021629;28;20038;-51
2022/03/17 08:12:36;;;;;;;8.77;6.10;;;;;;;3.08;100.00;95980.63;5028699;28;20061;-47
2022/03/17 08:15:05;;;;;;;8.30;5.85;;;;;;;3.08;100.00;95982.38;5034036;28;20098;-48
2022/03/17 08:17:33;;;;;;;17.20;8.95;;;;;;;3.02;100.00;95970.94;5026638;28;20053;-50
2022/03/17 08:20:00;;;;;;;18.15;8.80;;;;;;;3.16;100.00;95987.56;5023809;28;20123;-49
2022/03/17 08:22:26;;;;;;;10.10;5.38;;;;;;;3.22;100.00;95987.75;5023583;28;20061;-48
2022/03/17 08:24:53;;;;;;;6.07;3.72;;;;;;;3.27;100.00;95994.19;5023296;28;20434;-48
2022/03/17 08:27:20;;;;;;;8.77;5.55;;;;;;;3.50;100.00;95987.50;5022855;28;20046;-50
2022/03/17 08:29:48;;;;;;;13.18;7.05;;;;;;;3.64;100.00;95996.38;5025368;28;20052;-47
2022/03/17 08:32:15;;;;;;;17.02;8.52;;;;;;;3.74;100.00;95997.00;5022562;28;20056;-51
2022/03/17 08:34:43;;;;;;;29.77;12.40;;;;;;;3.89;100.00;96004.13;5025859;28;20041;-48
2022/03/17 08:37:10;;;;;;;45.40;17.98;;;;;;;3.93;100.00;95990.75;5024356;28;20054;-49
2022/03/17 08:39:38;;;;;;;14.07;6.68;;;;;;;3.91;100.00;95997.06;5023483;28;20608;-48
2022/03/17 08:42:05;;;;;;;5.72;3.53;;;;;;;4.09;100.00;95999.44;5022403;28;20049;-47
2022/03/17 08:44:32;;;;;;;8.52;5.68;;;;;;;4.25;100.00;96001.22;5023233;28;20049;-48
2022/03/17 08:49:44;;;;;;;11.50;5.90;;;;;;;4.70;100.00;95976.63;5027274;28;20474;-48
2022/03/17 08:52:11;;;;;;;8.68;4.88;;;;;;;4.88;100.00;95999.66;5027222;28;20041;-50
2022/03/17 08:54:38;;;;;;;9.43;5.53;;;;;;;5.13;100.00;96006.34;5028543;28;20046;-52
2022/03/17 08:57:05;;;;;;;5.90;4.25;;;;;;;5.35;100.00;96004.78;5027831;28;20592;-48
2022/03/17 08:59:36;;;;;;;7.25;5.10;;;;;;;5.54;100.00;96006.13;5022807;28;20050;-51
2022/03/17 09:02:06;;;;;;;8.02;5.00;;;;;;;5.44;97.82;96005.56;5027391;28;20095;-50
2022/03/17 09:04:34;;;;;;;10.82;5.07;;;;;;;5.63;100.00;95998.34;5022485;28;20138;-52
2022/03/17 09:07:02;;;;;;;18.13;7.60;;;;;;;5.90;100.00;96010.75;5022641;28;20045;-50
2022/03/17 09:09:31;;;;;;;13.25;5.97;;;;;;;6.17;100.00;96019.00;5022005;28;20033;-48
2022/03/17 09:12:01;;;;;;;15.13;5.85;;;;;;;6.45;100.00;96018.47;5022524;28;20623;-48
2022/03/17 09:14:28;;;;;;;6.03;4.22;;;;;;;6.21;93.47;96028.03;5022679;28;20136;-50
2022/03/17 09:16:55;;;;;;;8.40;5.15;;;;;;;6.13;94.82;96031.47;5021803;28;20042;-48
2022/03/17 09:19:22;;;;;;;13.00;5.65;;;;;;;6.08;96.22;96027.81;5022679;28;20045;-51
2022/03/17 09:21:49;;;;;;;6.95;3.72;;;;;;;5.98;93.12;96033.22;5022729;28;20434;-51
2022/03/17 09:24:16;;;;;;;5.80;3.13;;;;;;;5.83;92.00;96035.69;5021963;28;20049;-48
2022/03/17 09:26:43;;;;;;;4.40;3.10;;;;;;;5.72;91.80;96033.50;5023866;28;20055;-50
2022/03/17 09:29:09;;;;;;;7.43;4.85;;;;;;;5.77;92.29;96036.38;5021386;28;20049;-52
2022/03/17 09:31:36;;;;;;;6.43;3.10;;;;;;;5.91;93.58;96042.63;5022312;28;20047;-52
2022/03/17 09:34:04;;;;;;;3.67;2.20;;;;;;;5.63;89.66;96039.69;5022147;28;20061;-51
2022/03/17 09:36:31;;;;;;;3.47;2.13;;;;;;;5.52;90.66;96049.44;5023349;28;21020;-50
2022/03/17 09:41:43;;;;;;;8.50;4.47;;;;;;;5.51;91.74;96047.84;5023900;28;20481;-52
2022/03/17 09:44:10;;;;;;;6.28;3.40;;;;;;;5.62;91.58;96048.41;5022094;28;20446;-52
2022/03/17 09:46:43;;;;;;;5.15;2.92;;;;;;;5.63;88.49;96055.22;5026724;28;20037;-51
2022/03/17 09:49:10;;;;;;;4.70;2.70;;;;;;;5.72;90.11;96049.81;5021958;28;20096;-53
2022/03/17 09:51:40;;;;;;;5.32;3.22;;;;;;;5.91;89.33;96056.34;5028750;28;20049;-48
2022/03/17 09:54:06;;;;;;;5.43;3.65;;;;;;;6.03;88.51;96055.97;5020854;28;20049;-54
2022/03/17 09:56:33;;;;;;;8.48;4.45;;;;;;;6.10;85.85;96056.88;5022179;28;20127;-50
2022/03/17 09:59:02;;;;;;;6.72;5.00;;;;;;;5.90;86.26;96057.31;5021640;28;20477;-53
2022/03/17 10:01:29;;;;;;;5.93;3.30;;;;;;;5.88;86.37;96064.44;5022330;28;20060;-49
2022/03/17 10:04:00;;;;;;;8.38;4.35;;;;;;;5.91;86.63;96048.59;5021109;28;20049;-46
2022/03/17 10:06:28;;;;;;;10.50;5.57;;;;;;;5.97;87.51;96061.84;5027825;28;20046;-49
2022/03/17 10:08:57;;;;;;;9.00;5.93;;;;;;;6.12;88.84;96050.56;5022621;28;20044;-52
2022/03/17 10:11:30;;;;;;;8.75;3.83;;;;;;;6.30;87.82;96063.22;5022233;28;20048;-51
2022/03/17 10:13:59;;;;;;;8.32;4.50;;;;;;;6.29;87.93;96060.81;5022039;28;20052;-50
2022/03/17 10:16:27;;;;;;;4.85;3.60;;;;;;;5.83;88.25;96063.34;5028075;28;20064;-51
2022/03/17 10:18:59;;;;;;;8.68;3.97;;;;;;;5.49;92.16;96067.88;5027027;28;20175;-49
2022/03/17 10:21:28;;;;;;;6.57;3.97;;;;;;;5.50;94.19;96064.31;5028615;28;20471;-49
2022/03/17 10:23:59;;;;;;;8.23;4.00;;;;;;;5.31;93.90;96062.13;5025065;28;20054;-48
2022/03/17 10:26:39;;;;;;;6.85;3.88;;;;;;;5.41;91.94;96069.69;5026256;28;20080;-53
2022/03/17 10:29:15;;;;;;;9.15;4.85;;;;;;;5.69;94.67;96070.03;5028830;28;20120;-49
2022/03/17 10:31:54;;;;;;;9.52;4.85;;;;;;;5.64;96.52;96067.16;5036087;28;20552;-51
2022/03/17 10:34:25;;;;;;;11.25;4.68;;;;;;;5.58;97.91;96067.81;5029434;28;20040;-52
2022/03/17 10:37:07;;;;;;;13.02;6.43;;;;;;;5.58;98.46;96068.63;5026379;28;20564;-50
2022/03/17 10:39:43;;;;;;;14.65;8.40;;;;;;;5.61;98.15;96072.66;5023887;28;20033;-54
2022/03/17 10:42:17;;;;;;;30.67;12.27;;;;;;;5.72;97.85;96074.88;5024484;28;20080;-53
2022/03/17 10:44:51;;;;;;;16.20;8.25;;;;;;;5.84;96.55;96078.69;5023898;28;20045;-49
2022/03/17 10:47:37;;;;;;;2.53;1.42;;;;;;;5.34;96.12;96082.47;5030295;28;20069;-52
2022/03/17 10:50:15;;;;;;;7.03;4.35;;;;;;;5.18;97.63;96072.97;5030378;28;20052;-50
2022/03/17 10:52:47;;;;;;;8.50;4.60;;;;;;;5.10;97.90;96085.94;5024600;28;20071;-51
2022/03/17 10:55:14;;;;;;;18.60;8.95;;;;;;;5.10;98.08;96084.16;5023765;28;20050;-51
2022/03/17 10:57:41;;;;;;;20.15;9.20;;;;;;;5.11;99.66;96077.19;5023066;28;20410;-52
2022/03/17 11:00:20;;;;;;;15.38;7.72;;;;;;;5.10;99.89;96086.72;5024775;28;20052;-50
2022/03/17 11:02:58;;;;;;;13.35;7.07;;;;;;;5.16;100.00;96077.50;5025348;28;20050;-50
2022/03/17 11:05:29;;;;;;;15.52;7.70;;;;;;;5.23;100.00;96072.50;5024832;28;20641;-52
2022/03/17 11:07:58;;;;;;;9.50;5.60;;;;;;;5.31;99.68;96077.63;5024260;28;20037;-49
2022/03/17 11:10:26;;;;;;;7.18;4.70;;;;;;;4.73;100.00;96080.34;5024499;28;20038;-50
2022/03/17 11:12:53;;;;;;;9.18;5.68;;;;;;;4.96;100.00;96074.50;5024468;28;20057;-49
2022/03/17 11:15:28;;;;;;;11.30;5.75;;;;;;;4.79;100.00;96082.28;5025010;28;20049;-48
2022/03/17 11:18:02;;;;;;;11.77;5.70;;;;;;;4.95;99.29;96078.88;5031292;28;20050;-52
2022/03/17 11:20:30;;;;;;;8.27;4.32;;;;;;;5.00;94.51;96080.94;5023402;28;20138;-50
2022/03/17 11:23:15;;;;;;;10.48;4.35;;;;;;;4.96;94.31;96079.66;5025985;28;20473;-51
2022/03/17 11:25:54;;;;;;;10.57;4.68;;;;;;;5.03;94.02;96077.25;5023951;28;20491;-49
2022/03/17 11:28:36;;;;;;;7.93;4.03;;;;;;;5.13;93.51;96076.09;5021842;28;20056;-51
2022/03/17 11:31:05;;;;;;;8.55;4.43;;;;;;;5.17;92.95;96066.22;5026655;28;20465;-51
2022/03/17 11:33:43;;;;;;;9.38;4.88;;;;;;;5.37;92.45;96069.22;5024770;28;20128;-47
2022/03/17 11:36:09;;;;;;;10.48;5.68;;;;;;;5.60;91.51;96071.03;5022861;28;20075;-54
2022/03/17 11:38:43;;;;;;;16.92;6.60;;;;;;;5.67;89.21;96071.97;5025113;28;20045;-51
2022/03/17 11:41:26;;;;;;;21.77;10.73;;;;;;;5.49;90.07;96075.63;5024602;28;20068;-50
2022/03/17 11:43:56;;;;;;;12.27;6.30;;;;;;;5.52;89.57;96080.44;5023679;28;20042;-53
2022/03/17 11:46:45;;;;;;;8.10;4.88;;;;;;;5.60;90.78;96077.03;5027177;28;20477;-48
2022/03/17 11:49:22;;;;;;;9.90;4.75;;;;;;;5.78;92.14;96068.22;5022735;28;20529;-49
2022/03/17 11:51:58;;;;;;;12.05;6.85;;;;;;;5.77;90.95;96071.78;5021343;28;20037;-50
2022/03/17 11:54:26;;;;;;;8.55;5.40;;;;;;;5.69;89.93;96063.09;5022883;28;20045;-48
2022/03/17 11:57:04;;;;;;;8.85;4.90;;;;;;;5.76;90.04;96065.78;5028446;28;20787;-48